sensor_id;sensor_type;location;lat;lon;timestamp;P1;durP1;ratioP1;P2;durP2;ratioP2
13012;SDS011;22580;57.670;12.006;2024-02-23T00:02:04;0.50;;;0.50;;
13012;SDS011;22580;57.670;12.006;2024-02-23T00:04:32;0.30;;;0.30;;
13012;SDS011;22580;57.670;12.006;2024-02-23T00:06:58;0.30;;;0.30;;
13012;SDS011;22580;57.670;12.006;2024-02-23T00:09:29;0.20;;;0.20;;
13012;SDS011;22580;57.670;12.006;2024-02-23T00:11:56;0.30;;;0.30;;
13012;SDS011;22580;57.670;12.006;2024-02-23T00:14:22;0.30;;;0.30;;
13012;SDS011;22580;57.670;12.006;2024-02-23T00:16:49;0.40;;;0.40;;
13012;SDS011;22580;57.670;12.006;2024-02-23T00:19:16;0.20;;;0.20;;
13012;SDS011;22580;57.670;12.006;2024-02-23T00:21:44;0.30;;;0.30;;
13012;SDS011;22580;57.670;12.006;2024-02-23T00:24:15;0.30;;;0.30;;
13012;SDS011;22580;57.670;12.006;2024-02-23T00:26:44;0.30;;;0.30;;
13012;SDS011;22580;57.670;12.006;2024-02-23T00:29:11;0.20;;;0.20;;
13012;SDS011;22580;57.670;12.006;2024-02-23T00:31:38;0.30;;;0.30;;
13012;SDS011;22580;57.670;12.006;2024-02-23T00:34:06;0.20;;;0.20;;
13012;SDS011;22580;57.670;12.006;2024-02-23T00:36:35;0.30;;;0.30;;
13012;SDS011;22580;57.670;12.006;2024-02-23T00:39:03;0.20;;;0.20;;
13012;SDS011;22580;57.670;12.006;2024-02-23T00:41:32;0.30;;;0.30;;
13012;SDS011;22580;57.670;12.006;2024-02-23T00:44:00;0.30;;;0.30;;
13012;SDS011;22580;57.670;12.006;2024-02-23T00:46:27;0.10;;;0.10;;
13012;SDS011;22580;57.670;12.006;2024-02-23T00:48:54;0.77;;;0.30;;
13012;SDS011;22580;57.670;12.006;2024-02-23T00:51:21;0.20;;;0.20;;
13012;SDS011;22580;57.670;12.006;2024-02-23T00:53:48;0.20;;;0.20;;
13012;SDS011;22580;57.670;12.006;2024-02-23T00:56:15;0.20;;;0.20;;
13012;SDS011;22580;57.670;12.006;2024-02-23T00:58:42;0.10;;;0.10;;
13012;SDS011;22580;57.670;12.006;2024-02-23T01:01:12;0.30;;;0.30;;
13012;SDS011;22580;57.670;12.006;2024-02-23T01:03:39;0.20;;;0.20;;
13012;SDS011;22580;57.670;12.006;2024-02-23T01:06:06;0.20;;;0.20;;
13012;SDS011;22580;57.670;12.006;2024-02-23T01:08:33;0.20;;;0.20;;
13012;SDS011;22580;57.670;12.006;2024-02-23T01:11:01;0.10;;;0.10;;
13012;SDS011;22580;57.670;12.006;2024-02-23T01:13:28;0.23;;;0.23;;
13012;SDS011;22580;57.670;12.006;2024-02-23T01:15:55;0.23;;;0.23;;
13012;SDS011;22580;57.670;12.006;2024-02-23T01:18:23;0.30;;;0.30;;
13012;SDS011;22580;57.670;12.006;2024-02-23T01:20:51;0.20;;;0.20;;
13012;SDS011;22580;57.670;12.006;2024-02-23T01:23:18;0.20;;;0.20;;
13012;SDS011;22580;57.670;12.006;2024-02-23T01:25:45;0.30;;;0.30;;
13012;SDS011;22580;57.670;12.006;2024-02-23T01:28:12;0.20;;;0.20;;
13012;SDS011;22580;57.670;12.006;2024-02-23T01:30:39;0.10;;;0.10;;
13012;SDS011;22580;57.670;12.006;2024-02-23T01:33:06;0.20;;;0.20;;
13012;SDS011;22580;57.670;12.006;2024-02-23T01:35:35;0.20;;;0.20;;
13012;SDS011;22580;57.670;12.006;2024-02-23T01:38:02;0.20;;;0.20;;
13012;SDS011;22580;57.670;12.006;2024-02-23T01:40:30;0.10;;;0.10;;
13012;SDS011;22580;57.670;12.006;2024-02-23T01:43:00;0.20;;;0.20;;
13012;SDS011;22580;57.670;12.006;2024-02-23T01:45:28;0.10;;;0.10;;
13012;SDS011;22580;57.670;12.006;2024-02-23T01:47:55;0.43;;;0.30;;
13012;SDS011;22580;57.670;12.006;2024-02-23T01:50:22;0.20;;;0.20;;
13012;SDS011;22580;57.670;12.006;2024-02-23T01:52:51;0.20;;;0.20;;
13012;SDS011;22580;57.670;12.006;2024-02-23T01:55:22;0.20;;;0.20;;
13012;SDS011;22580;57.670;12.006;2024-02-23T01:57:49;0.10;;;0.10;;
13012;SDS011;22580;57.670;12.006;2024-02-23T02:00:17;0.20;;;0.20;;
13012;SDS011;22580;57.670;12.006;2024-02-23T02:02:46;0.10;;;0.10;;
13012;SDS011;22580;57.670;12.006;2024-02-23T02:05:14;0.20;;;0.20;;
13012;SDS011;22580;57.670;12.006;2024-02-23T02:07:41;0.10;;;0.10;;
13012;SDS011;22580;57.670;12.006;2024-02-23T02:10:10;0.20;;;0.20;;
13012;SDS011;22580;57.670;12.006;2024-02-23T02:12:37;0.20;;;0.20;;
13012;SDS011;22580;57.670;12.006;2024-02-23T02:15:05;0.13;;;0.13;;
13012;SDS011;22580;57.670;12.006;2024-02-23T02:17:33;0.10;;;0.10;;
13012;SDS011;22580;57.670;12.006;2024-02-23T02:20:02;0.20;;;0.20;;
13012;SDS011;22580;57.670;12.006;2024-02-23T02:22:31;0.10;;;0.10;;
13012;SDS011;22580;57.670;12.006;2024-02-23T02:24:59;0.20;;;0.20;;
13012;SDS011;22580;57.670;12.006;2024-02-23T02:27:27;0.20;;;0.20;;
13012;SDS011;22580;57.670;12.006;2024-02-23T02:29:54;0.20;;;0.20;;
13012;SDS011;22580;57.670;12.006;2024-02-23T02:32:22;0.10;;;0.10;;
13012;SDS011;22580;57.670;12.006;2024-02-23T02:34:50;0.10;;;0.10;;
13012;SDS011;22580;57.670;12.006;2024-02-23T02:37:17;0.20;;;0.20;;
13012;SDS011;22580;57.670;12.006;2024-02-23T02:39:44;0.10;;;0.10;;
13012;SDS011;22580;57.670;12.006;2024-02-23T02:42:11;0.10;;;0.10;;
13012;SDS011;22580;57.670;12.006;2024-02-23T02:44:42;0.10;;;0.10;;
13012;SDS011;22580;57.670;12.006;2024-02-23T02:47:09;0.17;;;0.17;;
13012;SDS011;22580;57.670;12.006;2024-02-23T02:49:36;0.10;;;0.10;;
13012;SDS011;22580;57.670;12.006;2024-02-23T02:52:03;0.20;;;0.20;;
13012;SDS011;22580;57.670;12.006;2024-02-23T02:54:30;0.13;;;0.13;;
13012;SDS011;22580;57.670;12.006;2024-02-23T02:56:57;0.47;;;0.20;;
13012;SDS011;22580;57.670;12.006;2024-02-23T02:59:24;0.10;;;0.10;;
13012;SDS011;22580;57.670;12.006;2024-02-23T03:01:53;0.20;;;0.20;;
13012;SDS011;22580;57.670;12.006;2024-02-23T03:04:20;0.20;;;0.20;;
13012;SDS011;22580;57.670;12.006;2024-02-23T03:06:47;0.10;;;0.10;;
13012;SDS011;22580;57.670;12.006;2024-02-23T03:09:14;0.03;;;0.03;;
13012;SDS011;22580;57.670;12.006;2024-02-23T03:11:41;0.10;;;0.10;;
13012;SDS011;22580;57.670;12.006;2024-02-23T03:14:08;0.07;;;0.07;;
13012;SDS011;22580;57.670;12.006;2024-02-23T03:16:36;0.10;;;0.10;;
13012;SDS011;22580;57.670;12.006;2024-02-23T03:19:04;0.20;;;0.20;;
13012;SDS011;22580;57.670;12.006;2024-02-23T03:21:33;0.10;;;0.10;;
13012;SDS011;22580;57.670;12.006;2024-02-23T03:24:01;0.13;;;0.13;;
13012;SDS011;22580;57.670;12.006;2024-02-23T03:26:29;0.10;;;0.10;;
13012;SDS011;22580;57.670;12.006;2024-02-23T03:28:56;0.10;;;0.10;;
13012;SDS011;22580;57.670;12.006;2024-02-23T03:31:23;0.10;;;0.10;;
13012;SDS011;22580;57.670;12.006;2024-02-23T03:33:50;0.13;;;0.13;;
13012;SDS011;22580;57.670;12.006;2024-02-23T03:36:20;0.10;;;0.10;;
13012;SDS011;22580;57.670;12.006;2024-02-23T03:38:47;0.27;;;0.10;;
13012;SDS011;22580;57.670;12.006;2024-02-23T03:41:15;0.03;;;0.03;;
13012;SDS011;22580;57.670;12.006;2024-02-23T03:43:41;0.00;;;0.00;;
13012;SDS011;22580;57.670;12.006;2024-02-23T03:46:08;0.07;;;0.07;;
13012;SDS011;22580;57.670;12.006;2024-02-23T03:48:37;0.10;;;0.10;;
13012;SDS011;22580;57.670;12.006;2024-02-23T03:51:04;0.47;;;0.30;;
13012;SDS011;22580;57.670;12.006;2024-02-23T03:53:33;0.50;;;0.50;;
13012;SDS011;22580;57.670;12.006;2024-02-23T03:56:00;0.50;;;0.30;;
13012;SDS011;22580;57.670;12.006;2024-02-23T03:58:28;1.00;;;0.37;;
13012;SDS011;22580;57.670;12.006;2024-02-23T04:00:55;1.03;;;0.53;;
13012;SDS011;22580;57.670;12.006;2024-02-23T04:03:22;0.60;;;0.60;;
13012;SDS011;22580;57.670;12.006;2024-02-23T04:05:50;0.70;;;0.50;;
13012;SDS011;22580;57.670;12.006;2024-02-23T04:08:17;0.60;;;0.60;;
13012;SDS011;22580;57.670;12.006;2024-02-23T04:10:46;0.53;;;0.50;;
13012;SDS011;22580;57.670;12.006;2024-02-23T04:13:13;0.90;;;0.60;;
13012;SDS011;22580;57.670;12.006;2024-02-23T04:15:40;0.50;;;0.50;;
13012;SDS011;22580;57.670;12.006;2024-02-23T04:18:07;0.97;;;0.73;;
13012;SDS011;22580;57.670;12.006;2024-02-23T04:20:34;0.93;;;0.60;;
13012;SDS011;22580;57.670;12.006;2024-02-23T04:23:01;1.03;;;0.40;;
13012;SDS011;22580;57.670;12.006;2024-02-23T04:25:28;2.33;;;0.80;;
13012;SDS011;22580;57.670;12.006;2024-02-23T04:27:57;2.63;;;0.90;;
13012;SDS011;22580;57.670;12.006;2024-02-23T04:30:24;0.60;;;0.50;;
13012;SDS011;22580;57.670;12.006;2024-02-23T04:32:51;0.50;;;0.50;;
13012;SDS011;22580;57.670;12.006;2024-02-23T04:35:18;0.80;;;0.73;;
13012;SDS011;22580;57.670;12.006;2024-02-23T04:37:45;1.70;;;0.53;;
13012;SDS011;22580;57.670;12.006;2024-02-23T04:40:14;1.80;;;0.80;;
13012;SDS011;22580;57.670;12.006;2024-02-23T04:42:43;1.37;;;0.80;;
13012;SDS011;22580;57.670;12.006;2024-02-23T04:45:11;0.73;;;0.73;;
13012;SDS011;22580;57.670;12.006;2024-02-23T04:47:39;2.43;;;0.70;;
13012;SDS011;22580;57.670;12.006;2024-02-23T04:50:06;2.60;;;0.50;;
13012;SDS011;22580;57.670;12.006;2024-02-23T04:52:34;4.07;;;1.10;;
13012;SDS011;22580;57.670;12.006;2024-02-23T04:55:01;2.50;;;0.90;;
13012;SDS011;22580;57.670;12.006;2024-02-23T04:57:28;0.50;;;0.40;;
13012;SDS011;22580;57.670;12.006;2024-02-23T04:59:55;2.23;;;0.80;;
13012;SDS011;22580;57.670;12.006;2024-02-23T05:02:24;1.33;;;0.80;;
13012;SDS011;22580;57.670;12.006;2024-02-23T05:04:53;1.83;;;0.80;;
13012;SDS011;22580;57.670;12.006;2024-02-23T05:07:22;1.73;;;0.77;;
13012;SDS011;22580;57.670;12.006;2024-02-23T05:09:51;1.47;;;0.77;;
13012;SDS011;22580;57.670;12.006;2024-02-23T05:12:18;2.70;;;0.80;;
13012;SDS011;22580;57.670;12.006;2024-02-23T05:14:45;1.43;;;0.80;;
13012;SDS011;22580;57.670;12.006;2024-02-23T05:17:11;2.07;;;1.00;;
13012;SDS011;22580;57.670;12.006;2024-02-23T05:19:41;2.30;;;0.67;;
13012;SDS011;22580;57.670;12.006;2024-02-23T05:22:08;1.70;;;0.80;;
13012;SDS011;22580;57.670;12.006;2024-02-23T05:24:36;1.60;;;0.83;;
13012;SDS011;22580;57.670;12.006;2024-02-23T05:27:03;2.30;;;0.90;;
13012;SDS011;22580;57.670;12.006;2024-02-23T05:29:31;2.07;;;1.10;;
13012;SDS011;22580;57.670;12.006;2024-02-23T05:31:57;2.57;;;1.00;;
13012;SDS011;22580;57.670;12.006;2024-02-23T05:34:26;2.60;;;0.93;;
13012;SDS011;22580;57.670;12.006;2024-02-23T05:36:55;3.37;;;1.10;;
13012;SDS011;22580;57.670;12.006;2024-02-23T05:39:23;2.77;;;1.00;;
13012;SDS011;22580;57.670;12.006;2024-02-23T05:41:52;2.53;;;1.00;;
13012;SDS011;22580;57.670;12.006;2024-02-23T05:44:18;2.93;;;1.10;;
13012;SDS011;22580;57.670;12.006;2024-02-23T05:46:45;1.73;;;1.07;;
13012;SDS011;22580;57.670;12.006;2024-02-23T05:49:15;3.50;;;1.10;;
13012;SDS011;22580;57.670;12.006;2024-02-23T05:51:42;4.23;;;1.40;;
13012;SDS011;22580;57.670;12.006;2024-02-23T05:54:11;1.30;;;1.00;;
13012;SDS011;22580;57.670;12.006;2024-02-23T05:56:38;2.73;;;1.17;;
13012;SDS011;22580;57.670;12.006;2024-02-23T05:59:05;3.37;;;1.30;;
13012;SDS011;22580;57.670;12.006;2024-02-23T06:01:35;2.20;;;1.00;;
13012;SDS011;22580;57.670;12.006;2024-02-23T06:04:02;2.97;;;0.90;;
13012;SDS011;22580;57.670;12.006;2024-02-23T06:06:30;4.10;;;0.97;;
13012;SDS011;22580;57.670;12.006;2024-02-23T06:08:57;3.27;;;1.33;;
13012;SDS011;22580;57.670;12.006;2024-02-23T06:11:26;2.40;;;1.20;;
13012;SDS011;22580;57.670;12.006;2024-02-23T06:13:55;3.33;;;1.37;;
13012;SDS011;22580;57.670;12.006;2024-02-23T06:16:22;1.47;;;0.90;;
13012;SDS011;22580;57.670;12.006;2024-02-23T06:18:49;0.83;;;0.67;;
13012;SDS011;22580;57.670;12.006;2024-02-23T06:21:16;2.50;;;0.90;;
13012;SDS011;22580;57.670;12.006;2024-02-23T06:23:43;2.53;;;0.97;;
13012;SDS011;22580;57.670;12.006;2024-02-23T06:26:10;1.77;;;0.73;;
13012;SDS011;22580;57.670;12.006;2024-02-23T06:28:39;1.70;;;0.90;;
13012;SDS011;22580;57.670;12.006;2024-02-23T06:31:07;1.80;;;0.90;;
13012;SDS011;22580;57.670;12.006;2024-02-23T06:33:34;3.20;;;0.97;;
13012;SDS011;22580;57.670;12.006;2024-02-23T06:36:01;1.93;;;0.60;;
13012;SDS011;22580;57.670;12.006;2024-02-23T06:38:31;3.23;;;1.10;;
13012;SDS011;22580;57.670;12.006;2024-02-23T06:40:59;2.83;;;0.80;;
13012;SDS011;22580;57.670;12.006;2024-02-23T06:43:26;1.13;;;0.70;;
13012;SDS011;22580;57.670;12.006;2024-02-23T06:45:54;0.80;;;0.50;;
13012;SDS011;22580;57.670;12.006;2024-02-23T06:48:23;1.23;;;0.53;;
13012;SDS011;22580;57.670;12.006;2024-02-23T06:50:51;0.93;;;0.60;;
13012;SDS011;22580;57.670;12.006;2024-02-23T06:53:18;3.73;;;0.90;;
13012;SDS011;22580;57.670;12.006;2024-02-23T06:55:44;1.97;;;0.60;;
13012;SDS011;22580;57.670;12.006;2024-02-23T06:58:11;1.43;;;0.50;;
13012;SDS011;22580;57.670;12.006;2024-02-23T07:00:40;1.67;;;0.57;;
13012;SDS011;22580;57.670;12.006;2024-02-23T07:03:08;1.63;;;0.90;;
13012;SDS011;22580;57.670;12.006;2024-02-23T07:05:35;2.47;;;0.70;;
13012;SDS011;22580;57.670;12.006;2024-02-23T07:08:02;1.50;;;0.60;;
13012;SDS011;22580;57.670;12.006;2024-02-23T07:10:30;2.23;;;0.97;;
13012;SDS011;22580;57.670;12.006;2024-02-23T07:12:57;1.47;;;1.10;;
13012;SDS011;22580;57.670;12.006;2024-02-23T07:15:24;1.63;;;0.80;;
13012;SDS011;22580;57.670;12.006;2024-02-23T07:17:51;2.13;;;0.83;;
13012;SDS011;22580;57.670;12.006;2024-02-23T07:20:20;2.53;;;0.97;;
13012;SDS011;22580;57.670;12.006;2024-02-23T07:22:47;0.60;;;0.60;;
13012;SDS011;22580;57.670;12.006;2024-02-23T07:25:15;1.67;;;0.97;;
13012;SDS011;22580;57.670;12.006;2024-02-23T07:27:43;1.47;;;0.80;;
13012;SDS011;22580;57.670;12.006;2024-02-23T07:30:10;1.27;;;0.90;;
13012;SDS011;22580;57.670;12.006;2024-02-23T07:32:38;2.80;;;1.20;;
13012;SDS011;22580;57.670;12.006;2024-02-23T07:35:05;2.03;;;1.07;;
13012;SDS011;22580;57.670;12.006;2024-02-23T07:37:33;3.73;;;1.20;;
13012;SDS011;22580;57.670;12.006;2024-02-23T07:40:00;1.87;;;1.10;;
13012;SDS011;22580;57.670;12.006;2024-02-23T07:42:28;3.50;;;1.40;;
13012;SDS011;22580;57.670;12.006;2024-02-23T07:44:55;2.23;;;1.07;;
13012;SDS011;22580;57.670;12.006;2024-02-23T07:47:22;2.77;;;0.93;;
13012;SDS011;22580;57.670;12.006;2024-02-23T07:49:51;3.73;;;1.40;;
13012;SDS011;22580;57.670;12.006;2024-02-23T07:52:19;1.73;;;1.00;;
13012;SDS011;22580;57.670;12.006;2024-02-23T07:54:49;2.90;;;1.40;;
13012;SDS011;22580;57.670;12.006;2024-02-23T07:57:17;3.30;;;1.33;;
13012;SDS011;22580;57.670;12.006;2024-02-23T07:59:44;3.90;;;1.60;;
13012;SDS011;22580;57.670;12.006;2024-02-23T08:02:11;2.70;;;1.20;;
13012;SDS011;22580;57.670;12.006;2024-02-23T08:04:39;3.27;;;1.17;;
13012;SDS011;22580;57.670;12.006;2024-02-23T08:07:07;2.87;;;1.30;;
13012;SDS011;22580;57.670;12.006;2024-02-23T08:09:34;3.00;;;1.00;;
13012;SDS011;22580;57.670;12.006;2024-02-23T08:12:03;3.00;;;1.00;;
13012;SDS011;22580;57.670;12.006;2024-02-23T08:14:30;2.30;;;1.13;;
13012;SDS011;22580;57.670;12.006;2024-02-23T08:16:58;3.50;;;1.33;;
13012;SDS011;22580;57.670;12.006;2024-02-23T08:19:24;4.87;;;1.47;;
13012;SDS011;22580;57.670;12.006;2024-02-23T08:21:51;3.03;;;1.07;;
13012;SDS011;22580;57.670;12.006;2024-02-23T08:24:18;6.03;;;1.83;;
13012;SDS011;22580;57.670;12.006;2024-02-23T08:26:45;6.10;;;2.20;;
13012;SDS011;22580;57.670;12.006;2024-02-23T08:29:13;4.03;;;1.30;;
13012;SDS011;22580;57.670;12.006;2024-02-23T08:31:41;4.23;;;1.70;;
13012;SDS011;22580;57.670;12.006;2024-02-23T08:34:08;2.77;;;1.30;;
13012;SDS011;22580;57.670;12.006;2024-02-23T08:36:35;1.53;;;0.80;;
13012;SDS011;22580;57.670;12.006;2024-02-23T08:39:02;1.53;;;1.00;;
13012;SDS011;22580;57.670;12.006;2024-02-23T08:41:29;4.00;;;1.50;;
13012;SDS011;22580;57.670;12.006;2024-02-23T08:43:56;1.93;;;1.17;;
13012;SDS011;22580;57.670;12.006;2024-02-23T08:46:24;2.87;;;1.40;;
13012;SDS011;22580;57.670;12.006;2024-02-23T08:48:53;4.17;;;1.30;;
13012;SDS011;22580;57.670;12.006;2024-02-23T08:51:20;4.77;;;1.50;;
13012;SDS011;22580;57.670;12.006;2024-02-23T08:53:47;2.30;;;1.20;;
13012;SDS011;22580;57.670;12.006;2024-02-23T08:56:14;2.40;;;0.90;;
13012;SDS011;22580;57.670;12.006;2024-02-23T08:58:41;4.33;;;1.00;;
13012;SDS011;22580;57.670;12.006;2024-02-23T09:01:08;4.33;;;1.20;;
13012;SDS011;22580;57.670;12.006;2024-02-23T09:03:39;2.30;;;1.00;;
13012;SDS011;22580;57.670;12.006;2024-02-23T09:06:06;4.23;;;1.00;;
13012;SDS011;22580;57.670;12.006;2024-02-23T09:08:33;2.13;;;0.90;;
13012;SDS011;22580;57.670;12.006;2024-02-23T09:11:00;1.97;;;0.90;;
13012;SDS011;22580;57.670;12.006;2024-02-23T09:13:27;1.60;;;0.60;;
13012;SDS011;22580;57.670;12.006;2024-02-23T09:15:54;2.60;;;1.00;;
13012;SDS011;22580;57.670;12.006;2024-02-23T09:18:22;1.30;;;0.80;;
13012;SDS011;22580;57.670;12.006;2024-02-23T09:20:50;1.73;;;0.83;;
13012;SDS011;22580;57.670;12.006;2024-02-23T09:23:17;2.23;;;0.97;;
13012;SDS011;22580;57.670;12.006;2024-02-23T09:25:45;2.70;;;0.80;;
13012;SDS011;22580;57.670;12.006;2024-02-23T09:28:11;1.87;;;0.83;;
13012;SDS011;22580;57.670;12.006;2024-02-23T09:30:38;3.13;;;0.90;;
13012;SDS011;22580;57.670;12.006;2024-02-23T09:33:05;1.77;;;1.00;;
13012;SDS011;22580;57.670;12.006;2024-02-23T09:35:33;1.57;;;0.90;;
13012;SDS011;22580;57.670;12.006;2024-02-23T09:38:02;1.57;;;0.90;;
13012;SDS011;22580;57.670;12.006;2024-02-23T09:40:29;1.80;;;1.07;;
13012;SDS011;22580;57.670;12.006;2024-02-23T09:42:56;1.67;;;1.17;;
13012;SDS011;22580;57.670;12.006;2024-02-23T09:45:24;1.70;;;1.00;;
13012;SDS011;22580;57.670;12.006;2024-02-23T09:47:52;1.13;;;0.80;;
13012;SDS011;22580;57.670;12.006;2024-02-23T09:50:20;3.13;;;1.00;;
13012;SDS011;22580;57.670;12.006;2024-02-23T09:52:49;2.03;;;1.10;;
13012;SDS011;22580;57.670;12.006;2024-02-23T09:55:18;1.47;;;0.80;;
13012;SDS011;22580;57.670;12.006;2024-02-23T09:57:46;2.93;;;0.90;;
13012;SDS011;22580;57.670;12.006;2024-02-23T10:00:15;2.77;;;1.00;;
13012;SDS011;22580;57.670;12.006;2024-02-23T10:02:43;2.87;;;1.20;;
13012;SDS011;22580;57.670;12.006;2024-02-23T10:05:10;1.17;;;0.90;;
13012;SDS011;22580;57.670;12.006;2024-02-23T10:07:38;2.20;;;0.90;;
13012;SDS011;22580;57.670;12.006;2024-02-23T10:10:06;1.73;;;1.20;;
13012;SDS011;22580;57.670;12.006;2024-02-23T10:12:35;3.20;;;1.10;;
13012;SDS011;22580;57.670;12.006;2024-02-23T10:15:02;2.97;;;1.17;;
13012;SDS011;22580;57.670;12.006;2024-02-23T10:17:29;3.33;;;1.53;;
13012;SDS011;22580;57.670;12.006;2024-02-23T10:20:05;2.30;;;0.90;;
13012;SDS011;22580;57.670;12.006;2024-02-23T10:22:32;3.90;;;1.33;;
13012;SDS011;22580;57.670;12.006;2024-02-23T10:25:00;3.90;;;1.30;;
13012;SDS011;22580;57.670;12.006;2024-02-23T10:27:27;2.00;;;1.00;;
13012;SDS011;22580;57.670;12.006;2024-02-23T10:29:55;2.23;;;0.97;;
13012;SDS011;22580;57.670;12.006;2024-02-23T10:32:22;1.50;;;0.93;;
13012;SDS011;22580;57.670;12.006;2024-02-23T10:34:49;2.20;;;0.97;;
13012;SDS011;22580;57.670;12.006;2024-02-23T10:37:19;2.00;;;1.03;;
13012;SDS011;22580;57.670;12.006;2024-02-23T10:39:48;1.77;;;0.77;;
13012;SDS011;22580;57.670;12.006;2024-02-23T10:42:20;2.40;;;1.20;;
13012;SDS011;22580;57.670;12.006;2024-02-23T10:44:50;1.13;;;0.83;;
13012;SDS011;22580;57.670;12.006;2024-02-23T10:47:19;2.00;;;0.90;;
13012;SDS011;22580;57.670;12.006;2024-02-23T10:49:47;1.93;;;0.93;;
13012;SDS011;22580;57.670;12.006;2024-02-23T10:52:14;2.20;;;0.93;;
13012;SDS011;22580;57.670;12.006;2024-02-23T10:54:42;2.80;;;1.13;;
13012;SDS011;22580;57.670;12.006;2024-02-23T10:57:12;1.47;;;0.93;;
13012;SDS011;22580;57.670;12.006;2024-02-23T10:59:40;1.20;;;0.70;;
13012;SDS011;22580;57.670;12.006;2024-02-23T11:02:06;0.87;;;0.70;;
13012;SDS011;22580;57.670;12.006;2024-02-23T11:04:36;2.60;;;0.80;;
13012;SDS011;22580;57.670;12.006;2024-02-23T11:07:04;2.10;;;0.93;;
13012;SDS011;22580;57.670;12.006;2024-02-23T11:09:39;2.20;;;0.80;;
13012;SDS011;22580;57.670;12.006;2024-02-23T11:12:07;2.33;;;0.70;;
13012;SDS011;22580;57.670;12.006;2024-02-23T11:14:35;1.07;;;0.70;;
13012;SDS011;22580;57.670;12.006;2024-02-23T11:17:03;2.70;;;1.10;;
13012;SDS011;22580;57.670;12.006;2024-02-23T11:19:35;0.83;;;0.70;;
13012;SDS011;22580;57.670;12.006;2024-02-23T11:22:03;4.50;;;1.20;;
13012;SDS011;22580;57.670;12.006;2024-02-23T11:24:30;3.47;;;1.17;;
13012;SDS011;22580;57.670;12.006;2024-02-23T11:26:58;0.80;;;0.60;;
13012;SDS011;22580;57.670;12.006;2024-02-23T11:29:26;1.87;;;0.80;;
13012;SDS011;22580;57.670;12.006;2024-02-23T11:31:54;2.77;;;0.93;;
13012;SDS011;22580;57.670;12.006;2024-02-23T11:34:26;1.40;;;0.70;;
13012;SDS011;22580;57.670;12.006;2024-02-23T11:36:56;1.50;;;0.80;;
13012;SDS011;22580;57.670;12.006;2024-02-23T11:39:25;2.17;;;0.77;;
13012;SDS011;22580;57.670;12.006;2024-02-23T11:41:52;3.10;;;0.90;;
13012;SDS011;22580;57.670;12.006;2024-02-23T11:44:20;1.80;;;1.00;;
13012;SDS011;22580;57.670;12.006;2024-02-23T11:46:46;1.37;;;0.80;;
13012;SDS011;22580;57.670;12.006;2024-02-23T11:49:13;2.27;;;0.90;;
13012;SDS011;22580;57.670;12.006;2024-02-23T11:51:41;1.23;;;0.70;;
13012;SDS011;22580;57.670;12.006;2024-02-23T11:54:09;3.30;;;1.00;;
13012;SDS011;22580;57.670;12.006;2024-02-23T11:56:36;1.40;;;0.70;;
13012;SDS011;22580;57.670;12.006;2024-02-23T11:59:03;1.30;;;0.87;;
13012;SDS011;22580;57.670;12.006;2024-02-23T12:01:31;1.47;;;0.90;;
13012;SDS011;22580;57.670;12.006;2024-02-23T12:03:58;1.77;;;0.80;;
13012;SDS011;22580;57.670;12.006;2024-02-23T12:06:25;1.07;;;0.77;;
13012;SDS011;22580;57.670;12.006;2024-02-23T12:08:55;1.40;;;0.70;;
13012;SDS011;22580;57.670;12.006;2024-02-23T12:11:24;1.67;;;0.70;;
13012;SDS011;22580;57.670;12.006;2024-02-23T12:13:52;2.87;;;0.50;;
13012;SDS011;22580;57.670;12.006;2024-02-23T12:16:20;1.30;;;0.83;;
13012;SDS011;22580;57.670;12.006;2024-02-23T12:18:46;0.60;;;0.50;;
13012;SDS011;22580;57.670;12.006;2024-02-23T12:21:19;1.10;;;0.70;;
13012;SDS011;22580;57.670;12.006;2024-02-23T12:23:49;1.60;;;1.00;;
13012;SDS011;22580;57.670;12.006;2024-02-23T12:26:17;0.70;;;0.50;;
13012;SDS011;22580;57.670;12.006;2024-02-23T12:28:46;0.97;;;0.70;;
13012;SDS011;22580;57.670;12.006;2024-02-23T12:31:13;1.60;;;0.83;;
13012;SDS011;22580;57.670;12.006;2024-02-23T12:33:40;1.27;;;0.60;;
13012;SDS011;22580;57.670;12.006;2024-02-23T12:36:13;1.37;;;0.40;;
13012;SDS011;22580;57.670;12.006;2024-02-23T12:38:40;1.67;;;0.70;;
13012;SDS011;22580;57.670;12.006;2024-02-23T12:41:07;0.70;;;0.40;;
13012;SDS011;22580;57.670;12.006;2024-02-23T12:43:34;1.77;;;0.50;;
13012;SDS011;22580;57.670;12.006;2024-02-23T12:46:02;1.77;;;0.70;;
13012;SDS011;22580;57.670;12.006;2024-02-23T12:48:29;1.73;;;0.60;;
13012;SDS011;22580;57.670;12.006;2024-02-23T12:50:56;1.57;;;0.80;;
13012;SDS011;22580;57.670;12.006;2024-02-23T12:53:30;1.77;;;0.70;;
13012;SDS011;22580;57.670;12.006;2024-02-23T12:55:58;0.67;;;0.60;;
13012;SDS011;22580;57.670;12.006;2024-02-23T12:58:25;1.73;;;0.50;;
13012;SDS011;22580;57.670;12.006;2024-02-23T13:00:52;1.97;;;0.77;;
13012;SDS011;22580;57.670;12.006;2024-02-23T13:03:21;1.17;;;0.43;;
13012;SDS011;22580;57.670;12.006;2024-02-23T13:05:48;0.80;;;0.50;;
13012;SDS011;22580;57.670;12.006;2024-02-23T13:08:15;0.70;;;0.40;;
13012;SDS011;22580;57.670;12.006;2024-02-23T13:10:43;0.77;;;0.47;;
13012;SDS011;22580;57.670;12.006;2024-02-23T13:13:09;3.17;;;0.60;;
13012;SDS011;22580;57.670;12.006;2024-02-23T13:15:37;1.10;;;0.50;;
13012;SDS011;22580;57.670;12.006;2024-02-23T13:18:04;0.20;;;0.20;;
13012;SDS011;22580;57.670;12.006;2024-02-23T13:20:33;0.67;;;0.37;;
13012;SDS011;22580;57.670;12.006;2024-02-23T13:23:00;0.40;;;0.40;;
13012;SDS011;22580;57.670;12.006;2024-02-23T13:25:27;1.03;;;0.30;;
13012;SDS011;22580;57.670;12.006;2024-02-23T13:27:54;0.97;;;0.50;;
13012;SDS011;22580;57.670;12.006;2024-02-23T13:30:21;0.73;;;0.40;;
13012;SDS011;22580;57.670;12.006;2024-02-23T13:32:50;0.43;;;0.40;;
13012;SDS011;22580;57.670;12.006;2024-02-23T13:35:17;0.70;;;0.40;;
13012;SDS011;22580;57.670;12.006;2024-02-23T13:37:46;0.90;;;0.40;;
13012;SDS011;22580;57.670;12.006;2024-02-23T13:40:14;0.50;;;0.23;;
13012;SDS011;22580;57.670;12.006;2024-02-23T13:42:41;0.67;;;0.43;;
13012;SDS011;22580;57.670;12.006;2024-02-23T13:45:11;1.47;;;0.60;;
13012;SDS011;22580;57.670;12.006;2024-02-23T13:47:39;0.90;;;0.43;;
13012;SDS011;22580;57.670;12.006;2024-02-23T13:50:07;1.07;;;0.43;;
13012;SDS011;22580;57.670;12.006;2024-02-23T13:52:35;0.43;;;0.30;;
13012;SDS011;22580;57.670;12.006;2024-02-23T13:55:03;1.03;;;0.47;;
13012;SDS011;22580;57.670;12.006;2024-02-23T13:57:31;0.87;;;0.40;;
13012;SDS011;22580;57.670;12.006;2024-02-23T13:59:59;0.67;;;0.50;;
13012;SDS011;22580;57.670;12.006;2024-02-23T14:02:26;0.73;;;0.50;;
13012;SDS011;22580;57.670;12.006;2024-02-23T14:04:59;0.30;;;0.30;;
13012;SDS011;22580;57.670;12.006;2024-02-23T14:07:30;0.53;;;0.30;;
13012;SDS011;22580;57.670;12.006;2024-02-23T14:09:57;0.80;;;0.40;;
13012;SDS011;22580;57.670;12.006;2024-02-23T14:12:25;0.10;;;0.10;;
13012;SDS011;22580;57.670;12.006;2024-02-23T14:14:53;0.43;;;0.30;;
13012;SDS011;22580;57.670;12.006;2024-02-23T14:17:20;1.17;;;0.60;;
13012;SDS011;22580;57.670;12.006;2024-02-23T14:19:46;0.50;;;0.30;;
13012;SDS011;22580;57.670;12.006;2024-02-23T14:22:15;0.50;;;0.50;;
13012;SDS011;22580;57.670;12.006;2024-02-23T14:24:42;0.70;;;0.40;;
13012;SDS011;22580;57.670;12.006;2024-02-23T14:27:10;0.97;;;0.40;;
13012;SDS011;22580;57.670;12.006;2024-02-23T14:29:43;0.63;;;0.43;;
13012;SDS011;22580;57.670;12.006;2024-02-23T14:32:11;1.63;;;0.63;;
13012;SDS011;22580;57.670;12.006;2024-02-23T14:34:42;2.13;;;0.80;;
13012;SDS011;22580;57.670;12.006;2024-02-23T14:37:09;0.70;;;0.67;;